Terminal Aerodrome Forecast
Issued by NWS Charleston, SC

Home | Current Version | Previous Version | Text Only | Print | Product List | Glossary On
Versions: 1 2 3 4 5 6 7 8 9 10 11 12 13 14 15 16 17
000
FTUS42 KCHS 301910 AAA
TAFSAV
TAF AMD
KSAV 301910Z 3019/3118 20007KT P6SM VCTS SCT045CB
     FM302100 21005KT P6SM SCT035 BKN100
     FM310200 24003KT P6SM FEW020 SCT150
     FM311400 VRB05KT P6SM SCT040 BKN100=

USA.gov is the U.S. government's official web portal to all federal, state and local government web resources and services.